Time;durP1;ratioP1;P1;durP2;ratioP2;P2;SDS_P1;SDS_P2;PMS_P1;PMS_P2;Temp;Humidity;BMP_temperature;BMP_pressure;BME280_temperature;BME280_humidity;BME280_pressure;Samples;Min_cycle;Max_cycle;Signal;HPM_P1;HPM_P2
2022/05/11 00:01:01;;;;;;;2.63;2.30;;;;;;;;;;5030440;28;20759;-57
2022/05/11 00:03:48;;;;;;;1.97;1.77;;;;;;;;;;5035628;28;20258;-57
2022/05/11 00:06:35;;;;;;;2.53;2.10;;;;;;;;;;5038474;28;20295;-56
2022/05/11 00:09:22;;;;;;;2.20;2.00;;;;;;;;;;5032932;28;20714;-56
2022/05/11 00:12:10;;;;;;;2.27;2.07;;;;;;;;;;5032425;28;20688;-56
2022/05/11 00:14:57;;;;;;;2.30;2.10;;;;;;;;;;5034041;28;20241;-57
2022/05/11 00:17:45;;;;;;;2.47;2.30;;;;;;;;;;5040451;28;20352;-56
2022/05/11 00:20:32;;;;;;;2.20;2.00;;;;;;;;;;5038375;28;20211;-56
2022/05/11 00:23:19;;;;;;;2.07;1.97;;;;;;;;;;5032158;28;20240;-56
2022/05/11 00:26:07;;;;;;;2.90;2.07;;;;;;;;;;5031450;28;20321;-57
2022/05/11 00:28:53;;;;;;;2.50;2.30;;;;;;;;;;5035437;28;20279;-56
2022/05/11 00:31:40;;;;;;;2.83;2.33;;;;;;;;;;5032043;28;20335;-56
2022/05/11 00:34:29;;;;;;;2.37;1.87;;;;;;;;;;5030645;28;20304;-56
2022/05/11 00:37:15;;;;;;;2.57;2.23;;;;;;;;;;5035058;28;20701;-57
2022/05/11 00:40:03;;;;;;;3.40;2.10;;;;;;;;;;5031453;28;20271;-56
2022/05/11 00:42:50;;;;;;;3.30;2.33;;;;;;;;;;5031859;28;20241;-57
2022/05/11 00:45:40;;;;;;;2.37;2.17;;;;;;;;;;5029959;28;20325;-56
2022/05/11 00:51:38;;;;;;;2.80;2.33;;;;;;;;;;5029444;28;20212;-56
2022/05/11 00:54:28;;;;;;;2.50;2.30;;;;;;;;;;5031769;28;20220;-56
2022/05/11 00:57:19;;;;;;;2.63;2.00;;;;;;;;;;5034241;28;20351;-56
2022/05/11 01:00:08;;;;;;;2.60;2.40;;;;;;;;;;5034209;28;20256;-56
2022/05/11 01:03:00;;;;;;;2.60;2.13;;;;;;;;;;5030516;28;20594;-56
2022/05/11 01:05:48;;;;;;;2.83;2.20;;;;;;;;;;5028446;28;20201;-57
2022/05/11 01:08:36;;;;;;;2.20;2.10;;;;;;;;;;5030241;28;20292;-56
2022/05/11 01:11:23;;;;;;;3.03;2.17;;;;;;;;;;5037779;28;20222;-56
2022/05/11 01:14:13;;;;;;;2.53;2.33;;;;;;;;;;5030630;28;20728;-56
2022/05/11 01:17:01;;;;;;;2.23;2.03;;;;;;;;;;5033079;28;20311;-56
2022/05/11 01:19:48;;;;;;;1.90;1.80;;;;;;;;;;5033429;28;20206;-56
2022/05/11 01:22:40;;;;;;;3.47;2.13;;;;;;;;;;5030279;28;20605;-57
2022/05/11 01:25:30;;;;;;;2.47;1.87;;;;;;;;;;5029769;28;20241;-56
2022/05/11 01:28:18;;;;;;;3.43;2.27;;;;;;;;;;5032297;28;20212;-56
2022/05/11 01:31:08;;;;;;;2.90;1.90;;;;;;;;;;5029752;28;20744;-56
2022/05/11 01:33:55;;;;;;;2.40;2.20;;;;;;;;;;5029314;28;20296;-56
2022/05/11 01:36:43;;;;;;;3.77;2.33;;;;;;;;;;5028666;28;20221;-56
2022/05/11 01:39:30;;;;;;;2.67;2.23;;;;;;;;;;5028930;28;20557;-56
2022/05/11 01:42:20;;;;;;;2.20;2.00;;;;;;;;;;5031887;28;20205;-56
2022/05/11 01:45:08;;;;;;;2.30;2.10;;;;;;;;;;5032306;28;20210;-56
2022/05/11 01:47:55;;;;;;;2.00;1.83;;;;;;;;;;5031719;28;20303;-56
2022/05/11 01:50:42;;;;;;;2.00;1.80;;;;;;;;;;5029286;28;20244;-56
2022/05/11 01:53:30;;;;;;;2.57;1.90;;;;;;;;;;5030787;28;20264;-56
2022/05/11 01:56:20;;;;;;;3.63;2.40;;;;;;;;;;5030382;28;20370;-57
2022/05/11 01:59:08;;;;;;;2.70;2.23;;;;;;;;;;5031064;28;20243;-55
2022/05/11 02:01:55;;;;;;;2.20;2.00;;;;;;;;;;5027199;28;20222;-55
2022/05/11 02:07:52;;;;;;;3.23;2.33;;;;;;;;;;5030974;28;20205;-56
2022/05/11 02:10:40;;;;;;;3.10;1.93;;;;;;;;;;5039004;28;20255;-55
2022/05/11 02:13:28;;;;;;;2.90;2.33;;;;;;;;;;5036048;28;20276;-57
2022/05/11 02:16:16;;;;;;;2.13;2.00;;;;;;;;;;5027304;28;20340;-56
2022/05/11 02:19:03;;;;;;;2.07;1.87;;;;;;;;;;5030161;28;20343;-55
2022/05/11 02:21:50;;;;;;;1.87;1.77;;;;;;;;;;5029426;28;20272;-56
2022/05/11 02:24:37;;;;;;;2.50;2.13;;;;;;;;;;5027201;28;20319;-56
2022/05/11 02:27:24;;;;;;;2.57;2.30;;;;;;;;;;5028366;28;20644;-56
2022/05/11 02:30:15;;;;;;;4.17;2.20;;;;;;;;;;5029316;28;20236;-56
2022/05/11 02:33:03;;;;;;;2.53;2.27;;;;;;;;;;5030140;28;20240;-56
2022/05/11 02:35:51;;;;;;;2.70;2.03;;;;;;;;;;5028363;28;20721;-55
2022/05/11 02:38:41;;;;;;;2.83;2.20;;;;;;;;;;5030941;28;20324;-56
2022/05/11 02:41:28;;;;;;;3.07;2.37;;;;;;;;;;5029744;28;20237;-55
2022/05/11 02:44:15;;;;;;;2.43;1.87;;;;;;;;;;5030970;28;20205;-56
2022/05/11 02:47:02;;;;;;;2.27;2.07;;;;;;;;;;5029104;28;20351;-55
2022/05/11 02:49:51;;;;;;;2.67;1.97;;;;;;;;;;5026903;28;20236;-56
2022/05/11 02:52:38;;;;;;;2.17;1.90;;;;;;;;;;5035125;28;20609;-56
2022/05/11 02:55:25;;;;;;;2.77;2.03;;;;;;;;;;5030458;28;20207;-55
2022/05/11 02:58:13;;;;;;;3.43;2.30;;;;;;;;;;5030676;28;20261;-56
2022/05/11 03:01:02;;;;;;;1.90;1.73;;;;;;;;;;5028765;28;20220;-55
2022/05/11 03:03:49;;;;;;;2.40;2.20;;;;;;;;;;5028108;28;20287;-56
2022/05/11 03:06:37;;;;;;;2.50;2.30;;;;;;;;;;5030074;28;20700;-56
2022/05/11 03:09:24;;;;;;;2.30;2.10;;;;;;;;;;5032069;28;20315;-55
2022/05/11 03:12:12;;;;;;;2.57;2.30;;;;;;;;;;5028514;28;20237;-56
2022/05/11 03:15:00;;;;;;;2.20;2.00;;;;;;;;;;5029798;28;20675;-55
2022/05/11 03:17:48;;;;;;;2.90;1.87;;;;;;;;;;5028961;28;20252;-56
2022/05/11 03:20:35;;;;;;;3.80;2.50;;;;;;;;;;5028578;28;20275;-55
2022/05/11 03:23:23;;;;;;;2.27;1.77;;;;;;;;;;5029346;28;20247;-56
2022/05/11 03:26:11;;;;;;;2.10;1.90;;;;;;;;;;5028589;28;20394;-55
2022/05/11 03:28:58;;;;;;;3.57;2.10;;;;;;;;;;5027545;28;20661;-55
2022/05/11 03:34:36;;;;;;;2.57;2.10;;;;;;;;;;5028401;28;20299;-55
2022/05/11 03:34:52;;;;;;;2.67;2.17;;;;;;;;;;5029828;28;20210;-56
2022/05/11 03:37:39;;;;;;;2.30;2.10;;;;;;;;;;5029122;28;20241;-56
2022/05/11 03:40:27;;;;;;;2.23;1.90;;;;;;;;;;5025847;28;20280;-56
2022/05/11 03:43:14;;;;;;;1.93;1.83;;;;;;;;;;5026591;28;20690;-56
2022/05/11 03:46:01;;;;;;;2.20;1.80;;;;;;;;;;5027990;28;20748;-55
2022/05/11 03:48:48;;;;;;;2.10;1.90;;;;;;;;;;5028960;28;20341;-55
2022/05/11 03:51:34;;;;;;;2.30;2.00;;;;;;;;;;5028959;28;20253;-56
2022/05/11 03:54:21;;;;;;;2.07;1.97;;;;;;;;;;5028837;28;20679;-55
2022/05/11 03:57:10;;;;;;;2.90;2.33;;;;;;;;;;5031520;28;20277;-56
2022/05/11 03:59:57;;;;;;;2.20;2.10;;;;;;;;;;5035250;28;20678;-56
2022/05/11 04:02:43;;;;;;;2.83;2.00;;;;;;;;;;5041362;28;20312;-56
2022/05/11 04:05:32;;;;;;;2.03;1.80;;;;;;;;;;5031674;28;20752;-56
2022/05/11 04:08:19;;;;;;;2.63;2.43;;;;;;;;;;5031632;28;20218;-57
2022/05/11 04:11:06;;;;;;;2.50;2.10;;;;;;;;;;5033847;28;20308;-56
2022/05/11 04:13:55;;;;;;;2.10;1.90;;;;;;;;;;5030395;28;20348;-56
2022/05/11 04:16:41;;;;;;;2.50;2.30;;;;;;;;;;5029483;28;20466;-56
2022/05/11 04:19:29;;;;;;;2.67;2.30;;;;;;;;;;5031182;28;20287;-56
2022/05/11 04:22:16;;;;;;;2.67;1.97;;;;;;;;;;5033258;28;20241;-56
2022/05/11 04:25:03;;;;;;;2.63;2.30;;;;;;;;;;5031304;28;20337;-56
2022/05/11 04:27:50;;;;;;;3.27;2.27;;;;;;;;;;5031075;28;20197;-55
2022/05/11 04:30:39;;;;;;;2.50;2.20;;;;;;;;;;5037795;28;20289;-55
2022/05/11 04:33:26;;;;;;;4.53;2.33;;;;;;;;;;5032737;28;20298;-56
2022/05/11 04:36:13;;;;;;;2.67;2.40;;;;;;;;;;5030608;28;20721;-56
2022/05/11 04:39:00;;;;;;;2.23;2.03;;;;;;;;;;5030729;28;20237;-55
2022/05/11 04:41:47;;;;;;;2.10;1.90;;;;;;;;;;5029089;28;20290;-56
2022/05/11 04:44:34;;;;;;;3.07;2.50;;;;;;;;;;5036229;28;20286;-56
2022/05/11 04:47:22;;;;;;;2.83;2.20;;;;;;;;;;5031587;28;20325;-56
2022/05/11 04:50:10;;;;;;;5.00;2.90;;;;;;;;;;5030682;28;20726;-56
2022/05/11 04:52:57;;;;;;;2.93;2.37;;;;;;;;;;5029679;28;20263;-56
2022/05/11 04:55:46;;;;;;;3.10;2.30;;;;;;;;;;5030834;28;20240;-57
2022/05/11 04:58:33;;;;;;;3.20;2.40;;;;;;;;;;5029539;28;20328;-56
2022/05/11 05:01:20;;;;;;;2.47;2.27;;;;;;;;;;5036586;28;20215;-56
2022/05/11 05:04:09;;;;;;;2.30;2.10;;;;;;;;;;5030201;28;20232;-56
2022/05/11 05:06:56;;;;;;;2.67;1.77;;;;;;;;;;5030222;28;20220;-56
2022/05/11 05:09:43;;;;;;;2.13;1.90;;;;;;;;;;5030202;28;20212;-55
2022/05/11 05:12:30;;;;;;;2.77;2.37;;;;;;;;;;5034708;28;20255;-56
2022/05/11 05:15:18;;;;;;;3.97;2.33;;;;;;;;;;5033176;28;20310;-56
2022/05/11 05:18:06;;;;;;;3.23;2.20;;;;;;;;;;5030187;28;20274;-55
2022/05/11 05:20:55;;;;;;;2.67;2.27;;;;;;;;;;5030806;28;20224;-56
2022/05/11 05:23:43;;;;;;;2.20;2.00;;;;;;;;;;5031371;28;20219;-56
2022/05/11 05:26:30;;;;;;;2.53;1.97;;;;;;;;;;5033548;28;20685;-56
2022/05/11 05:32:21;;;;;;;3.63;1.97;;;;;;;;;;5030212;28;20232;-56
2022/05/11 05:35:09;;;;;;;3.30;1.60;;;;;;;;;;5032173;28;20347;-56
2022/05/11 05:37:58;;;;;;;2.13;1.93;;;;;;;;;;5030274;28;20376;-56
2022/05/11 05:40:46;;;;;;;2.87;2.10;;;;;;;;;;5036050;28;20212;-56
2022/05/11 05:43:33;;;;;;;2.43;2.20;;;;;;;;;;5033279;28;20298;-56
2022/05/11 05:46:21;;;;;;;2.70;2.00;;;;;;;;;;5030306;28;20676;-56
2022/05/11 05:49:08;;;;;;;2.07;1.90;;;;;;;;;;5030179;28;20327;-56
2022/05/11 05:51:55;;;;;;;2.67;2.10;;;;;;;;;;5028875;28;20241;-56
2022/05/11 05:54:45;;;;;;;2.27;1.90;;;;;;;;;;5041739;28;20752;-56
2022/05/11 05:57:32;;;;;;;1.93;1.70;;;;;;;;;;5033708;28;20284;-56
2022/05/11 06:00:19;;;;;;;3.33;2.07;;;;;;;;;;5030245;28;20611;-55
2022/05/11 06:03:06;;;;;;;2.30;2.10;;;;;;;;;;5034404;28;20308;-56
2022/05/11 06:05:54;;;;;;;2.43;2.10;;;;;;;;;;5028589;28;20218;-56
2022/05/11 06:08:40;;;;;;;2.27;2.07;;;;;;;;;;5032671;28;20207;-57
2022/05/11 06:11:29;;;;;;;2.30;2.00;;;;;;;;;;5030354;28;20219;-56
2022/05/11 06:14:16;;;;;;;2.30;2.10;;;;;;;;;;5032155;28;20211;-56
2022/05/11 06:17:03;;;;;;;2.43;1.73;;;;;;;;;;5030221;28;22173;-56
2022/05/11 06:19:50;;;;;;;2.10;1.90;;;;;;;;;;5029191;28;20321;-56
2022/05/11 06:22:37;;;;;;;2.30;2.00;;;;;;;;;;5028214;28;20781;-56
2022/05/11 06:25:24;;;;;;;1.77;1.67;;;;;;;;;;5035055;28;20326;-56
2022/05/11 06:28:13;;;;;;;2.20;2.00;;;;;;;;;;5029668;28;20205;-56
2022/05/11 06:30:59;;;;;;;2.47;2.27;;;;;;;;;;5029532;28;20299;-57
2022/05/11 06:33:49;;;;;;;2.43;1.70;;;;;;;;;;5026507;28;20307;-56
2022/05/11 06:36:36;;;;;;;3.35;2.00;;;;;;;;;;5027372;28;20205;-56
2022/05/11 06:39:23;;;;;;;3.33;2.20;;;;;;;;;;5027117;28;20211;-56
2022/05/11 06:42:12;;;;;;;3.10;1.95;;;;;;;;;;5029814;28;20222;-56
2022/05/11 06:45:01;;;;;;;2.58;1.90;;;;;;;;;;5024724;28;20722;-56
2022/05/11 06:47:48;;;;;;;2.47;1.92;;;;;;;;;;5021551;28;20258;-57
2022/05/11 06:50:35;;;;;;;3.15;2.08;;;;;;;;;;5024122;28;20404;-57
2022/05/11 06:53:22;;;;;;;1.85;1.75;;;;;;;;;;5024593;28;20233;-56
2022/05/11 06:59:21;;;;;;;2.33;1.80;;;;;;;;;;5027036;28;20319;-56
2022/05/11 07:02:09;;;;;;;3.15;2.08;;;;;;;;;;5027200;28;20686;-56
2022/05/11 07:04:56;;;;;;;2.60;2.30;;;;;;;;;;5026710;28;20298;-56
2022/05/11 07:07:43;;;;;;;2.40;1.95;;;;;;;;;;5028246;28;20209;-57
2022/05/11 07:10:31;;;;;;;1.85;1.67;;;;;;;;;;5027383;28;20204;-56
2022/05/11 07:13:18;;;;;;;3.13;2.05;;;;;;;;;;5028037;28;20213;-57
2022/05/11 07:16:05;;;;;;;3.15;1.90;;;;;;;;;;5028581;28;20346;-57
2022/05/11 07:18:54;;;;;;;2.85;1.80;;;;;;;;;;5028688;28;20280;-56
2022/05/11 07:21:41;;;;;;;2.08;1.77;;;;;;;;;;5027861;28;20216;-55
2022/05/11 07:24:28;;;;;;;2.20;2.00;;;;;;;;;;5029429;28;20271;-55
2022/05/11 07:27:15;;;;;;;2.10;1.77;;;;;;;;;;5032439;28;20282;-55
2022/05/11 07:30:02;;;;;;;2.42;2.10;;;;;;;;;;5025711;28;20338;-55
2022/05/11 07:32:50;;;;;;;2.65;2.20;;;;;;;;;;5029527;28;20262;-54
2022/05/11 07:35:38;;;;;;;2.05;1.85;;;;;;;;;;5031354;28;20212;-55
2022/05/11 07:38:26;;;;;;;1.90;1.50;;;;;;;;;;5033797;28;20228;-55
2022/05/11 07:41:12;;;;;;;2.90;2.17;;;;;;;;;;5032929;28;20559;-55
2022/05/11 07:43:59;;;;;;;2.38;1.80;;;;;;;;;;5032556;28;20248;-55
2022/05/11 07:46:47;;;;;;;2.20;1.75;;;;;;;;;;5039025;28;20290;-56
2022/05/11 07:49:34;;;;;;;2.13;1.80;;;;;;;;;;5035630;28;20255;-53
2022/05/11 07:52:22;;;;;;;2.72;1.80;;;;;;;;;;5033264;28;20287;-55
2022/05/11 07:55:09;;;;;;;1.90;1.80;;;;;;;;;;5035816;28;20671;-54
2022/05/11 08:01:02;;;;;;;2.63;1.98;;;;;;;;;;5033763;28;20207;-54
2022/05/11 08:03:49;;;;;;;2.00;1.85;;;;;;;;;;5030523;28;20266;-53
2022/05/11 08:06:36;;;;;;;2.03;1.80;;;;;;;;;;5037182;28;20611;-53
2022/05/11 08:09:24;;;;;;;2.70;1.95;;;;;;;;;;5037066;28;20200;-55
2022/05/11 08:12:11;;;;;;;2.42;1.95;;;;;;;;;;5034443;28;20331;-55
2022/05/11 08:14:59;;;;;;;2.13;1.83;;;;;;;;;;5029451;28;20270;-56
2022/05/11 08:17:46;;;;;;;2.40;1.77;;;;;;;;;;5034255;28;20279;-57
2022/05/11 08:20:36;;;;;;;2.72;2.00;;;;;;;;;;5036730;28;20337;-55
2022/05/11 08:23:23;;;;;;;2.67;1.90;;;;;;;;;;5031896;28;20569;-55
2022/05/11 08:26:11;;;;;;;3.45;1.92;;;;;;;;;;5033065;28;20668;-56
2022/05/11 08:28:58;;;;;;;2.63;1.83;;;;;;;;;;5034890;28;20202;-56
2022/05/11 08:34:49;;;;;;;2.55;1.98;;;;;;;;;;5030529;28;20206;-55
2022/05/11 08:37:36;;;;;;;2.70;1.70;;;;;;;;;;5031363;28;20212;-57
2022/05/11 08:40:32;;;;;;;2.80;1.67;;;;;;;;;;5030557;28;20717;-56
2022/05/11 08:43:21;;;;;;;2.13;1.92;;;;;;;;;;5030451;28;20363;-55
2022/05/11 08:46:15;;;;;;;1.90;1.75;;;;;;;;;;5038647;28;20338;-55
2022/05/11 08:49:05;;;;;;;2.75;1.90;;;;;;;;;;5037300;28;20237;-55
2022/05/11 08:51:59;;;;;;;3.10;1.80;;;;;;;;;;5029279;28;20286;-55
2022/05/11 08:54:48;;;;;;;2.33;1.88;;;;;;;;;;5028694;28;20240;-55
2022/05/11 08:57:39;;;;;;;2.70;2.22;;;;;;;;;;5030604;28;20261;-55
2022/05/11 09:00:28;;;;;;;2.28;1.58;;;;;;;;;;5034096;28;20286;-55
2022/05/11 09:03:26;;;;;;;2.47;1.80;;;;;;;;;;5029312;28;20218;-55
2022/05/11 09:06:18;;;;;;;2.65;1.95;;;;;;;;;;5030949;28;20672;-55
2022/05/11 09:09:05;;;;;;;1.98;1.80;;;;;;;;;;5030998;28;20243;-56
2022/05/11 09:11:54;;;;;;;2.20;2.00;;;;;;;;;;5031307;28;20208;-55
2022/05/11 09:14:47;;;;;;;1.83;1.33;;;;;;;;;;5030460;28;20682;-56
2022/05/11 09:17:40;;;;;;;3.13;2.03;;;;;;;;;;5031995;28;20586;-55
2022/05/11 09:20:35;;;;;;;3.10;2.20;;;;;;;;;;5033366;28;20234;-55
2022/05/11 09:23:30;;;;;;;2.08;1.98;;;;;;;;;;5030450;28;20219;-55
2022/05/11 09:26:30;;;;;;;2.27;1.83;;;;;;;;;;5030859;28;20234;-55
2022/05/11 09:29:20;;;;;;;2.07;1.90;;;;;;;;;;5031939;28;20582;-55
2022/05/11 09:32:26;;;;;;;2.53;1.93;;;;;;;;;;5033708;28;20614;-55
2022/05/11 09:35:27;;;;;;;2.85;1.85;;;;;;;;;;5029231;28;20216;-55
2022/05/11 09:38:32;;;;;;;4.03;1.90;;;;;;;;;;5029978;28;20299;-56
2022/05/11 09:41:23;;;;;;;1.80;1.50;;;;;;;;;;5027844;28;20731;-56
2022/05/11 09:44:23;;;;;;;2.22;1.90;;;;;;;;;;5030783;28;20219;-55
2022/05/11 09:47:29;;;;;;;1.65;1.50;;;;;;;;;;5030937;28;20299;-56
2022/05/11 09:50:22;;;;;;;1.90;1.80;;;;;;;;;;5031212;28;20773;-55
2022/05/11 09:53:23;;;;;;;2.80;1.63;;;;;;;;;;5030475;28;20317;-55
2022/05/11 09:56:19;;;;;;;2.63;1.90;;;;;;;;;;5030028;28;20216;-55
2022/05/11 09:59:22;;;;;;;1.70;1.60;;;;;;;;;;5037132;28;20315;-56
2022/05/11 10:02:22;;;;;;;1.93;1.73;;;;;;;;;;5030324;28;20251;-56
2022/05/11 10:05:10;;;;;;;1.83;1.50;;;;;;;;;;5029993;28;20202;-56
2022/05/11 10:08:05;;;;;;;1.53;1.43;;;;;;;;;;5031410;28;20816;-56
2022/05/11 10:10:57;;;;;;;2.17;1.60;;;;;;;;;;5027510;28;20263;-55
2022/05/11 10:13:51;;;;;;;1.83;1.42;;;;;;;;;;5035110;28;20345;-55
2022/05/11 10:23:03;;;;;;;2.05;1.45;;;;;;;;;;5031212;28;20633;-56
2022/05/11 10:25:58;;;;;;;2.50;1.70;;;;;;;;;;5029673;28;20440;-56
2022/05/11 10:28:54;;;;;;;2.20;1.70;;;;;;;;;;5028054;28;20199;-56
2022/05/11 10:31:50;;;;;;;1.40;1.23;;;;;;;;;;5030332;28;20202;-55
2022/05/11 10:34:51;;;;;;;1.57;1.40;;;;;;;;;;5030840;28;20218;-55
2022/05/11 10:37:49;;;;;;;1.50;1.40;;;;;;;;;;5029107;28;20213;-56
2022/05/11 10:40:48;;;;;;;1.60;1.50;;;;;;;;;;5028686;28;20785;-55
2022/05/11 10:43:49;;;;;;;1.60;1.43;;;;;;;;;;5030715;28;20593;-56
2022/05/11 10:46:38;;;;;;;1.93;1.47;;;;;;;;;;5028486;28;20209;-55
2022/05/11 10:49:47;;;;;;;2.23;1.63;;;;;;;;;;5028447;28;20238;-56
2022/05/11 10:53:02;;;;;;;1.67;1.57;;;;;;;;;;5035252;28;20262;-55
2022/05/11 10:56:00;;;;;;;1.73;1.40;;;;;;;;;;5032453;28;20255;-55
2022/05/11 10:59:05;;;;;;;1.57;1.20;;;;;;;;;;5032480;28;20264;-55
2022/05/11 11:02:08;;;;;;;1.70;1.20;;;;;;;;;;5026293;28;20219;-55
2022/05/11 11:05:07;;;;;;;1.67;1.57;;;;;;;;;;5029163;28;20242;-60
2022/05/11 11:08:09;;;;;;;1.73;1.60;;;;;;;;;;5034022;28;20247;-55
2022/05/11 11:11:07;;;;;;;2.40;1.60;;;;;;;;;;5035388;28;20335;-57
2022/05/11 11:13:59;;;;;;;1.77;1.50;;;;;;;;;;5031399;28;20424;-57
2022/05/11 11:16:46;;;;;;;2.10;1.90;;;;;;;;;;5032585;28;20707;-55
2022/05/11 11:19:34;;;;;;;1.60;1.50;;;;;;;;;;5032184;28;20318;-55
2022/05/11 11:22:21;;;;;;;4.83;1.90;;;;;;;;;;5030824;28;20257;-55
2022/05/11 11:25:22;;;;;;;2.17;1.80;;;;;;;;;;5039911;28;20323;-55
2022/05/11 11:28:13;;;;;;;2.00;1.90;;;;;;;;;;5032952;28;20210;-55
2022/05/11 11:31:24;;;;;;;1.83;1.73;;;;;;;;;;5030897;28;20674;-55
2022/05/11 11:34:20;;;;;;;1.60;1.60;;;;;;;;;;5037333;28;20299;-55
2022/05/11 11:37:52;;;;;;;2.43;2.00;;;;;;;;;;5035012;28;20213;-55
2022/05/11 11:40:39;;;;;;;1.97;1.53;;;;;;;;;;5038400;28;20614;-56
2022/05/11 11:43:45;;;;;;;2.30;2.00;;;;;;;;;;5033986;28;20288;-55
2022/05/11 11:46:36;;;;;;;2.07;1.87;;;;;;;;;;5031327;28;20209;-56
2022/05/11 11:49:41;;;;;;;2.20;1.90;;;;;;;;;;5024383;28;20247;-55
2022/05/11 11:52:37;;;;;;;1.70;1.60;;;;;;;;;;5012082;28;20287;-56
2022/05/11 11:55:27;;;;;;;1.77;1.67;;;;;;;;;;5012321;28;20222;-55
2022/05/11 11:58:28;;;;;;;1.60;1.50;;;;;;;;;;5014796;28;20822;-56
2022/05/11 12:01:23;;;;;;;1.90;1.80;;;;;;;;;;5013084;28;20210;-55
2022/05/11 12:04:27;;;;;;;1.67;1.57;;;;;;;;;;5012853;28;20219;-55
2022/05/11 12:16:44;;;;;;;2.20;1.83;;;;;;;;;;5000490;28;20703;-56
2022/05/11 12:19:34;;;;;;;1.87;1.60;;;;;;;;;;5011002;28;20285;-55
2022/05/11 12:22:22;;;;;;;1.70;1.60;;;;;;;;;;5014215;28;20304;-55
2022/05/11 12:25:18;;;;;;;1.87;1.77;;;;;;;;;;5015302;28;20206;-56
2022/05/11 12:28:23;;;;;;;1.90;1.80;;;;;;;;;;5016120;28;20217;-55
2022/05/11 12:31:32;;;;;;;1.87;1.77;;;;;;;;;;5010784;28;20205;-55
2022/05/11 12:34:22;;;;;;;2.60;1.97;;;;;;;;;;5017557;28;21042;-56
2022/05/11 12:37:24;;;;;;;2.00;1.80;;;;;;;;;;5015889;28;20284;-55
2022/05/11 12:40:13;;;;;;;2.03;1.93;;;;;;;;;;5010843;28;20282;-58
2022/05/11 12:43:08;;;;;;;2.13;1.93;;;;;;;;;;5014425;28;20224;-57
2022/05/11 12:45:58;;;;;;;2.13;1.80;;;;;;;;;;5009716;28;20273;-57
2022/05/11 12:48:55;;;;;;;1.93;1.83;;;;;;;;;;5015426;28;20727;-57
2022/05/11 12:51:50;;;;;;;2.30;2.10;;;;;;;;;;5015370;28;20682;-56
2022/05/11 12:54:38;;;;;;;2.93;2.00;;;;;;;;;;5014708;28;20275;-56
2022/05/11 12:57:26;;;;;;;1.90;1.80;;;;;;;;;;5009570;28;20210;-56
2022/05/11 13:00:17;;;;;;;2.37;2.17;;;;;;;;;;5006726;28;20230;-56
2022/05/11 13:03:26;;;;;;;2.00;1.90;;;;;;;;;;5005935;28;20205;-56
2022/05/11 13:06:23;;;;;;;2.23;2.13;;;;;;;;;;5013583;28;20700;-55
2022/05/11 13:09:19;;;;;;;2.40;2.17;;;;;;;;;;5009776;28;20209;-56
2022/05/11 13:12:12;;;;;;;1.90;1.80;;;;;;;;;;5007397;28;20261;-56
2022/05/11 13:15:02;;;;;;;1.70;1.60;;;;;;;;;;5011518;28;20299;-56
2022/05/11 13:17:50;;;;;;;1.90;1.77;;;;;;;;;;5009132;28;20213;-56
2022/05/11 13:20:39;;;;;;;2.10;1.90;;;;;;;;;;5010903;28;20361;-56
2022/05/11 13:23:32;;;;;;;1.80;1.40;;;;;;;;;;5011726;28;20200;-56
2022/05/11 13:26:34;;;;;;;2.43;1.50;;;;;;;;;;5009192;28;20204;-55
2022/05/11 13:29:25;;;;;;;2.07;1.60;;;;;;;;;;5013954;28;20284;-57
2022/05/11 13:32:12;;;;;;;1.50;1.40;;;;;;;;;;5011746;28;20215;-55
2022/05/11 13:35:16;;;;;;;1.93;1.53;;;;;;;;;;5011307;28;20277;-56
2022/05/11 13:38:16;;;;;;;1.73;1.63;;;;;;;;;;5013590;28;20294;-55
2022/05/11 13:41:07;;;;;;;1.53;1.43;;;;;;;;;;5011554;28;20657;-57
2022/05/11 13:43:57;;;;;;;1.17;1.17;;;;;;;;;;5013751;28;20198;-56
2022/05/11 13:49:52;;;;;;;1.33;1.23;;;;;;;;;;5024065;28;20233;-56
2022/05/11 13:52:49;;;;;;;1.23;1.13;;;;;;;;;;5031396;28;20960;-56
2022/05/11 13:55:39;;;;;;;1.40;1.30;;;;;;;;;;5030792;28;20679;-56
2022/05/11 13:58:32;;;;;;;1.53;1.40;;;;;;;;;;5033133;28;20716;-55
2022/05/11 14:01:21;;;;;;;1.90;1.40;;;;;;;;;;5028758;28;20346;-56
2022/05/11 14:04:10;;;;;;;1.00;1.00;;;;;;;;;;5029687;28;20205;-56
2022/05/11 14:07:01;;;;;;;1.60;1.50;;;;;;;;;;5033413;28;20697;-56
2022/05/11 14:09:48;;;;;;;1.50;1.40;;;;;;;;;;5029352;28;20204;-56
2022/05/11 14:12:35;;;;;;;1.80;1.43;;;;;;;;;;5029473;28;20371;-57
2022/05/11 14:15:21;;;;;;;1.43;1.33;;;;;;;;;;5028074;28;20282;-56
2022/05/11 14:18:11;;;;;;;1.30;1.20;;;;;;;;;;5030877;28;20230;-56
2022/05/11 14:20:59;;;;;;;1.57;1.20;;;;;;;;;;5029796;28;20317;-56
2022/05/11 14:23:46;;;;;;;1.23;1.13;;;;;;;;;;5031454;28;20573;-56
2022/05/11 14:26:33;;;;;;;1.50;1.40;;;;;;;;;;5034302;28;20750;-56
2022/05/11 14:29:21;;;;;;;3.03;1.30;;;;;;;;;;5030076;28;20211;-56
2022/05/11 14:32:18;;;;;;;1.67;1.33;;;;;;;;;;5030380;28;20815;-56
2022/05/11 14:35:09;;;;;;;1.20;1.10;;;;;;;;;;5029343;28;20212;-56
2022/05/11 14:37:57;;;;;;;1.53;1.33;;;;;;;;;;5033295;28;20215;-56
2022/05/11 14:40:44;;;;;;;1.27;1.17;;;;;;;;;;5027393;28;20333;-56
2022/05/11 14:43:32;;;;;;;2.53;1.40;;;;;;;;;;5026574;28;20691;-56
2022/05/11 14:46:21;;;;;;;3.37;1.37;;;;;;;;;;5030687;28;20910;-56
2022/05/11 14:49:09;;;;;;;3.07;1.50;;;;;;;;;;5022807;28;20605;-56
2022/05/11 14:51:56;;;;;;;6.40;1.87;;;;;;;;;;5008233;28;20294;-56
2022/05/11 14:54:45;;;;;;;4.60;1.90;;;;;;;;;;5010283;28;20282;-56
2022/05/11 15:03:42;;;;;;;12.93;2.23;;;;;;;;;;5007064;28;20712;-56
2022/05/11 15:06:31;;;;;;;13.50;2.13;;;;;;;;;;5008830;28;20205;-56
2022/05/11 15:09:18;;;;;;;11.73;2.60;;;;;;;;;;5005345;28;20240;-56
2022/05/11 15:15:25;;;;;;;14.33;2.57;;;;;;;;;;4973245;28;20320;-56
2022/05/11 15:18:14;;;;;;;11.27;2.33;;;;;;;;;;5010396;28;20263;-56
2022/05/11 15:21:01;;;;;;;13.80;2.63;;;;;;;;;;5009116;28;20244;-56
2022/05/11 15:23:47;;;;;;;16.27;2.53;;;;;;;;;;5010526;28;20269;-56
2022/05/11 15:26:34;;;;;;;20.93;3.17;;;;;;;;;;5010807;28;20215;-56
2022/05/11 15:29:23;;;;;;;14.20;2.67;;;;;;;;;;5008683;28;20296;-56
2022/05/11 15:32:18;;;;;;;17.80;2.67;;;;;;;;;;5005047;28;20263;-56
2022/05/11 15:35:08;;;;;;;13.97;3.10;;;;;;;;;;5006868;28;20318;-56
2022/05/11 15:37:56;;;;;;;16.07;2.90;;;;;;;;;;5005952;28;20217;-56
2022/05/11 15:40:45;;;;;;;14.50;2.80;;;;;;;;;;5007041;28;20703;-56
2022/05/11 15:43:32;;;;;;;18.10;2.90;;;;;;;;;;5005379;28;20213;-57
2022/05/11 15:46:21;;;;;;;20.27;3.23;;;;;;;;;;5007074;28;20658;-56
2022/05/11 15:49:08;;;;;;;22.47;3.40;;;;;;;;;;5015840;28;20241;-56
2022/05/11 15:51:55;;;;;;;19.37;3.83;;;;;;;;;;5028821;28;20754;-57
2022/05/11 15:54:42;;;;;;;15.67;3.03;;;;;;;;;;5033757;28;20322;-56
2022/05/11 15:57:29;;;;;;;19.80;3.70;;;;;;;;;;5035046;28;20747;-56
2022/05/11 16:00:18;;;;;;;21.70;3.87;;;;;;;;;;5030165;28;20315;-57
2022/05/11 16:03:09;;;;;;;20.00;3.93;;;;;;;;;;5031719;28;20212;-57
2022/05/11 16:05:57;;;;;;;16.67;4.40;;;;;;;;;;5031612;28;20800;-56
2022/05/11 16:08:44;;;;;;;12.87;3.73;;;;;;;;;;5032218;28;20570;-56
2022/05/11 16:11:33;;;;;;;16.03;4.10;;;;;;;;;;5030831;28;20680;-56
2022/05/11 16:14:23;;;;;;;11.23;3.80;;;;;;;;;;5029592;28;20268;-56
2022/05/11 16:20:15;;;;;;;13.00;4.03;;;;;;;;;;5032833;28;20331;-56
2022/05/11 16:23:05;;;;;;;15.43;3.77;;;;;;;;;;5030749;28;20205;-56
2022/05/11 16:25:52;;;;;;;11.20;4.03;;;;;;;;;;5031489;28;20209;-57
2022/05/11 16:28:39;;;;;;;12.57;3.60;;;;;;;;;;5031557;28;20340;-55
2022/05/11 16:31:26;;;;;;;11.10;3.67;;;;;;;;;;5031464;28;20292;-56
2022/05/11 16:34:14;;;;;;;10.43;3.53;;;;;;;;;;5032539;28;20251;-56
2022/05/11 16:37:03;;;;;;;8.47;3.27;;;;;;;;;;5031850;28;20286;-56
2022/05/11 16:39:50;;;;;;;12.63;3.53;;;;;;;;;;5033033;28;20294;-56
2022/05/11 16:42:38;;;;;;;15.10;3.30;;;;;;;;;;5034345;28;20701;-56
2022/05/11 16:45:25;;;;;;;15.67;3.50;;;;;;;;;;5030134;28;20204;-56
2022/05/11 16:48:13;;;;;;;7.80;3.10;;;;;;;;;;5030968;28;20270;-56
2022/05/11 16:51:00;;;;;;;7.57;3.30;;;;;;;;;;5011831;28;20210;-56
2022/05/11 16:53:49;;;;;;;10.77;3.30;;;;;;;;;;5012090;28;20311;-56
2022/05/11 16:56:36;;;;;;;10.30;3.53;;;;;;;;;;5011986;28;20722;-56
2022/05/11 16:59:24;;;;;;;9.27;3.33;;;;;;;;;;5006955;28;20623;-56
2022/05/11 17:02:11;;;;;;;6.07;2.50;;;;;;;;;;5009547;28;20213;-56
2022/05/11 17:04:59;;;;;;;7.00;3.07;;;;;;;;;;5008281;28;20277;-56
2022/05/11 17:07:46;;;;;;;6.57;2.90;;;;;;;;;;5016215;28;20692;-57
2022/05/11 17:10:34;;;;;;;7.93;2.93;;;;;;;;;;5009227;28;20286;-56
2022/05/11 17:13:21;;;;;;;7.03;2.97;;;;;;;;;;5009862;28;20219;-56
2022/05/11 17:16:09;;;;;;;8.50;3.20;;;;;;;;;;5010975;28;20302;-56
2022/05/11 17:18:55;;;;;;;9.67;3.47;;;;;;;;;;5006068;28;20994;-56
2022/05/11 17:21:43;;;;;;;10.87;3.60;;;;;;;;;;5004350;28;20314;-56
2022/05/11 17:24:30;;;;;;;10.67;3.37;;;;;;;;;;5007082;28;20208;-56
2022/05/11 17:27:19;;;;;;;9.53;3.43;;;;;;;;;;5008320;28;20688;-56
2022/05/11 17:30:08;;;;;;;8.90;3.60;;;;;;;;;;5006841;28;20272;-57
2022/05/11 17:32:55;;;;;;;8.37;3.80;;;;;;;;;;5011159;28;20305;-56
2022/05/11 17:35:43;;;;;;;10.80;3.67;;;;;;;;;;5009528;28;20648;-56
2022/05/11 17:38:30;;;;;;;8.70;4.03;;;;;;;;;;5013601;28;20212;-57
2022/05/11 17:41:17;;;;;;;7.67;3.60;;;;;;;;;;5009590;28;20235;-56
2022/05/11 17:44:07;;;;;;;12.83;3.80;;;;;;;;;;5009786;28;20295;-56
2022/05/11 17:46:54;;;;;;;8.13;3.73;;;;;;;;;;5009586;28;20202;-56